Time;durP1;ratioP1;P1;durP2;ratioP2;P2;SDS_P1;SDS_P2;PMS_P1;PMS_P2;Temp;Humidity;BMP_temperature;BMP_pressure;BME280_temperature;BME280_humidity;BME280_pressure;Samples;Min_cycle;Max_cycle;Signal;HPM_P1;HPM_P2
2022/06/12 00:20:48;;;;;;;23.33;3.83;;;;;;;24.58;nan;101112.34;6222391;23;20736;-89
2022/06/12 00:32:55;;;;;;;;;;;;;;;;;;;;;
2022/06/12 00:53:21;;;;;;;7.63;1.33;;;;;;;25.09;47.97;101078.81;5390142;23;18979649;-88
2022/06/12 01:09:26;;;;;;;;;;;;;;;;;;;;;
2022/06/12 01:12:58;;;;;;;12.20;1.83;;;;;;;25.00;48.92;101091.69;5721270;25;20402;-88
2022/06/12 01:26:14;;;;;;;5.30;1.90;;;;;;;24.95;50.00;101128.06;5709705;25;20841;-88
2022/06/12 01:29:26;;;;;;;14.47;2.40;;;;;;;24.87;50.32;101120.19;5724401;25;20414;-88
2022/06/12 01:36:51;;;;;;;8.10;1.80;;;;;;;24.62;50.44;101113.47;5697097;25;20447;-88
2022/06/12 02:06:22;;;;;;;7.37;1.60;;;;;;;24.70;47.74;101110.13;5845660;24;20488;-88
2022/06/12 02:09:51;;;;;;;8.70;1.80;;;;;;;24.61;48.07;101100.63;5826035;24;20798;-88
2022/06/12 02:16:42;;;;;;;18.33;1.63;;;;;;;24.62;48.28;101093.91;5982223;23;20405;-87
2022/06/12 02:20:33;;;;;;;3.97;1.43;;;;;;;24.52;48.61;101088.31;6105788;23;20429;-87
2022/06/12 02:23:40;;;;;;;13.40;2.20;;;;;;;24.61;48.21;101095.03;6011033;23;20413;-88
2022/06/12 02:27:16;;;;;;;;;;;;;;;;;;;;;
2022/06/12 02:30:32;;;;;;;7.33;1.20;;;;;;;24.81;46.83;101083.00;5981906;23;20441;-91
2022/06/12 02:33:44;;;;;;;7.53;1.63;;;;;;;25.00;46.85;101097.28;6038184;23;20440;-88
2022/06/12 02:37:13;;;;;;;8.13;1.20;;;;;;;25.06;46.66;101112.94;6056502;23;20430;-87
2022/06/12 02:40:02;;;;;;;10.30;2.00;;;;;;;24.99;46.70;101104.84;6055278;23;20469;-89
2022/06/12 02:42:34;;;;;;;8.70;1.60;;;;;;;25.02;46.62;101106.22;6049671;23;20422;-89
2022/06/12 02:45:33;;;;;;;11.50;1.57;;;;;;;25.11;46.54;101116.56;6057311;23;20407;-89
2022/06/12 02:48:32;;;;;;;8.40;2.00;;;;;;;25.05;47.60;101106.50;6036988;23;20474;-90
2022/06/12 02:52:04;;;;;;;9.63;1.77;;;;;;;25.18;47.87;101127.47;6055308;23;20362;-90
2022/06/12 02:55:30;;;;;;;11.53;2.53;;;;;;;25.04;47.81;101101.19;6044532;23;20416;-91
2022/06/12 02:58:29;;;;;;;12.23;1.73;;;;;;;25.20;48.77;101119.66;5933719;24;20458;-89
2022/06/12 03:01:00;;;;;;;9.50;2.00;;;;;;;25.07;48.54;101109.00;6031907;23;20756;-89
2022/06/12 03:03:47;;;;;;;13.63;2.03;;;;;;;25.20;49.07;101136.44;6020293;23;20738;-88
2022/06/12 03:06:26;;;;;;;7.20;1.60;;;;;;;25.10;49.24;101114.06;6020545;23;20475;-91
2022/06/12 03:08:58;;;;;;;10.37;1.97;;;;;;;25.20;49.35;101124.41;5999427;23;20502;-92
2022/06/12 03:11:41;;;;;;;9.43;2.20;;;;;;;25.04;49.37;101092.78;6021613;23;20436;-91
2022/06/12 03:14:19;;;;;;;9.97;1.73;;;;;;;25.18;49.40;101121.03;6021386;23;20416;-91
2022/06/12 03:17:24;;;;;;;12.63;2.10;;;;;;;25.02;49.47;101100.63;6020784;23;20415;-90
2022/06/12 03:20:00;;;;;;;7.43;1.90;;;;;;;25.08;49.43;101116.28;5954904;24;20415;-91
2022/06/12 03:23:11;;;;;;;10.47;2.67;;;;;;;25.14;49.68;101115.16;5954579;24;20453;-91
2022/06/12 03:26:09;;;;;;;15.87;2.07;;;;;;;25.15;49.96;101127.19;5953820;24;20504;-92
2022/06/12 03:29:06;;;;;;;12.30;2.80;;;;;;;25.15;50.37;101116.84;5955531;24;20415;-92
2022/06/12 03:32:09;;;;;;;14.90;1.93;;;;;;;25.15;50.75;101116.00;5954395;24;20931;-92
2022/06/12 03:35:29;;;;;;;8.93;2.03;;;;;;;25.01;51.25;101094.22;6011458;23;20815;-92
2022/06/12 03:38:37;;;;;;;13.83;1.97;;;;;;;25.08;52.54;101117.13;5927514;24;20474;-91
2022/06/12 03:45:02;;;;;;;13.50;3.07;;;;;;;24.96;53.58;101093.38;5969293;24;20409;-91
2022/06/12 03:48:20;;;;;;;11.90;2.43;;;;;;;24.98;53.48;101117.16;5960975;24;20418;-92
2022/06/12 03:51:10;;;;;;;17.93;1.93;;;;;;;24.95;54.05;101097.28;5983045;24;20417;-91
2022/06/12 03:53:48;;;;;;;13.90;1.87;;;;;;;24.93;53.91;101113.47;5984172;23;20638;-91
2022/06/12 04:00:18;;;;;;;14.47;2.10;;;;;;;24.73;54.00;101081.59;6011015;23;20502;-91
2022/06/12 04:03:07;;;;;;;13.40;2.90;;;;;;;24.82;54.35;101097.84;5992631;23;20409;-91
2022/06/12 04:06:14;;;;;;;10.80;2.43;;;;;;;24.85;54.46;101111.22;5986466;23;20514;-91
2022/06/12 04:08:51;;;;;;;14.67;2.67;;;;;;;24.66;55.06;101089.41;6009662;23;20421;-91
2022/06/12 04:11:31;;;;;;;18.37;2.93;;;;;;;24.82;55.26;101111.81;5970452;23;20452;-91
2022/06/12 04:14:45;;;;;;;10.20;2.30;;;;;;;24.69;55.23;101108.44;6016638;23;20860;-91
2022/06/12 04:17:41;;;;;;;12.90;2.30;;;;;;;24.74;55.49;101127.19;6029098;23;20926;-91
2022/06/12 04:20:20;;;;;;;14.47;2.40;;;;;;;24.64;55.76;101094.44;6045041;23;20419;-91
2022/06/12 04:27:12;;;;;;;22.17;3.10;;;;;;;24.62;56.10;101096.72;6067677;23;20375;-91
2022/06/12 04:41:40;;;;;;;16.10;2.60;;;;;;;24.48;57.25;101117.06;6031421;23;20435;-91
2022/06/12 04:48:10;;;;;;;16.73;2.10;;;;;;;24.47;57.77;101124.63;6151456;23;20380;-91
2022/06/12 04:50:52;;;;;;;15.93;2.37;;;;;;;24.48;57.63;101126.31;6101902;23;20437;-91
2022/06/12 04:53:46;;;;;;;10.13;2.10;;;;;;;24.37;57.73;101102.25;6090760;23;20422;-92
2022/06/12 04:56:29;;;;;;;15.23;2.27;;;;;;;24.35;57.51;101096.09;6077235;23;20439;-91
2022/06/12 04:59:00;;;;;;;8.20;1.87;;;;;;;24.34;56.42;101102.81;6076676;23;20470;-90
2022/06/12 05:01:37;;;;;;;12.00;2.60;;;;;;;24.42;56.48;101114.28;6076195;23;20410;-91
2022/06/12 05:04:05;;;;;;;9.63;2.13;;;;;;;24.37;56.34;101105.91;6076402;23;20422;-91
2022/06/12 05:06:36;;;;;;;9.83;2.47;;;;;;;24.30;55.81;101094.13;6073753;23;20462;-91
2022/06/12 05:09:07;;;;;;;7.97;2.10;;;;;;;24.38;55.35;101106.75;6069860;23;20459;-91
2022/06/12 05:11:38;;;;;;;10.93;2.40;;;;;;;24.35;54.87;101102.53;6072869;23;20427;-92
2022/06/12 05:14:11;;;;;;;11.47;2.50;;;;;;;24.34;54.34;101088.84;6113051;23;20391;-90
2022/06/12 05:17:00;;;;;;;7.37;1.40;;;;;;;24.47;54.68;101099.47;6166536;23;20399;-89
2022/06/12 05:19:31;;;;;;;11.77;2.00;;;;;;;24.41;54.28;101097.81;6141052;23;20431;-90
2022/06/12 05:22:51;;;;;;;10.40;1.97;;;;;;;24.48;53.94;101103.94;6142301;23;20434;-92
2022/06/12 05:26:03;;;;;;;15.53;2.10;;;;;;;24.39;53.33;101086.91;6067158;23;20403;-91
2022/06/12 05:29:36;;;;;;;14.17;2.00;;;;;;;24.37;52.93;101083.53;6029537;23;20400;-92
2022/06/12 05:32:22;;;;;;;12.73;2.23;;;;;;;24.44;52.87;101077.66;6022854;23;20432;-91
2022/06/12 05:35:11;;;;;;;14.33;1.77;;;;;;;24.50;52.92;101084.94;6000179;23;20429;-91
2022/06/12 05:38:00;;;;;;;14.87;2.20;;;;;;;24.40;52.89;101066.22;6021367;23;20520;-90
2022/06/12 05:40:53;;;;;;;11.87;1.90;;;;;;;24.45;52.92;101062.56;5999972;23;20403;-91
2022/06/12 05:43:44;;;;;;;9.20;1.83;;;;;;;24.50;52.96;101070.97;6094978;23;20440;-91
2022/06/12 05:46:45;;;;;;;10.77;2.33;;;;;;;24.61;53.00;101095.03;6125817;23;20372;-91
2022/06/12 05:49:40;;;;;;;11.13;1.80;;;;;;;24.62;52.88;101088.31;6124531;23;20371;-91
2022/06/12 05:52:28;;;;;;;8.60;1.67;;;;;;;24.51;53.47;101064.25;6136774;23;20486;-91
2022/06/12 05:55:24;;;;;;;17.50;2.47;;;;;;;24.68;52.66;101084.38;6155429;23;20926;-91
2022/06/12 05:59:23;;;;;;;10.90;1.80;;;;;;;24.70;52.74;101087.75;6143344;23;20438;-91
2022/06/12 06:02:07;;;;;;;18.00;1.97;;;;;;;24.76;52.71;101075.47;6171827;23;20473;-92
2022/06/12 06:08:42;;;;;;;15.23;3.70;;;;;;;24.69;52.52;101058.13;6217424;23;20467;-91
2022/06/12 06:11:13;;;;;;;18.70;2.50;;;;;;;24.90;52.26;101091.66;6145586;23;20421;-91
2022/06/12 06:13:49;;;;;;;18.00;2.40;;;;;;;24.95;51.37;101095.34;6167715;23;20940;-91
2022/06/12 06:16:20;;;;;;;11.77;2.30;;;;;;;24.89;50.47;101084.38;6168206;23;20407;-91
2022/06/12 06:19:10;;;;;;;9.40;1.70;;;;;;;24.94;49.95;101079.66;6150661;23;20876;-91
2022/06/12 06:21:56;;;;;;;16.50;2.53;;;;;;;24.96;49.56;101084.97;6147728;23;20465;-91
2022/06/12 06:32:15;;;;;;;21.17;2.23;;;;;;;25.25;48.34;101091.63;5982943;24;20382;-92
2022/06/12 07:29:27;;;;;;;9.23;2.20;;;;;;;26.76;42.27;101164.09;6156422;23;20408;-90
2022/06/12 07:32:17;;;;;;;6.53;1.70;;;;;;;26.83;42.43;101159.84;6085699;23;20436;-92
2022/06/12 07:34:45;;;;;;;9.47;2.50;;;;;;;26.86;42.24;101152.81;6095173;23;20435;-93
2022/06/12 07:41:36;;;;;;;10.67;1.90;;;;;;;27.02;42.03;101150.75;6181691;23;20387;-91
2022/06/12 07:44:32;;;;;;;4.73;1.43;;;;;;;27.13;42.12;101160.75;5897728;24;20403;-93
2022/06/12 11:49:48;;;;;;;22.90;3.47;;;;;;;33.16;37.25;101243.38;6192205;23;20473;-93
2022/06/12 13:45:23;;;;;;;14.10;3.50;;;;;;;35.22;35.84;101166.09;6127839;23;20438;-93
2022/06/12 13:47:53;;;;;;;21.53;4.80;;;;;;;35.14;36.18;101169.88;6187373;23;20407;-93
2022/06/12 13:50:38;;;;;;;21.23;3.83;;;;;;;35.07;36.38;101163.91;6149730;23;20392;-91
2022/06/12 13:53:25;;;;;;;23.40;4.67;;;;;;;35.09;36.31;101145.34;6150707;23;20893;-93
2022/06/12 13:56:14;;;;;;;14.83;4.07;;;;;;;35.06;35.90;101165.09;6118273;23;20893;-93
2022/06/12 13:59:01;;;;;;;28.13;5.23;;;;;;;34.94;36.17;101143.16;6143830;23;20493;-93
2022/06/12 14:01:32;;;;;;;24.87;5.03;;;;;;;35.15;37.10;101141.09;6142026;23;20407;-91
2022/06/12 14:04:28;;;;;;;22.73;3.80;;;;;;;35.33;36.41;101138.94;6126514;23;20419;-92
2022/06/12 14:06:58;;;;;;;32.10;3.80;;;;;;;35.46;35.86;101168.22;6142232;23;20464;-93
2022/06/12 14:09:34;;;;;;;23.90;4.70;;;;;;;35.45;36.00;101158.03;6118142;23;20410;-93
2022/06/12 14:12:02;;;;;;;17.57;4.57;;;;;;;35.46;35.75;101151.16;6141173;23;20941;-90
2022/06/12 14:22:19;;;;;;;24.30;3.60;;;;;;;35.74;36.22;101139.94;6191495;23;20841;-93
2022/06/12 14:28:38;;;;;;;21.57;4.03;;;;;;;35.49;35.35;101141.91;6196609;23;20378;-93
2022/06/12 14:31:10;;;;;;;13.17;3.67;;;;;;;35.57;35.63;101133.28;6116424;23;20442;-93
2022/06/12 14:34:16;;;;;;;18.63;4.03;;;;;;;35.66;35.85;101139.69;6141913;23;20780;-91
2022/06/12 14:37:02;;;;;;;22.00;5.00;;;;;;;35.77;35.88;101133.59;6165651;23;20439;-92
2022/06/12 14:39:35;;;;;;;22.93;4.20;;;;;;;35.83;35.25;101132.97;6142999;23;20470;-92
2022/06/12 15:36:53;;;;;;;18.10;4.53;;;;;;;35.56;35.92;101102.38;6218416;23;20378;-93
2022/06/12 15:39:24;;;;;;;18.47;4.57;;;;;;;35.46;36.12;101103.63;6143249;23;20442;-93
2022/06/12 15:42:01;;;;;;;20.13;5.07;;;;;;;35.41;36.25;101101.00;6166358;23;20413;-93
2022/06/12 15:48:10;;;;;;;24.37;4.80;;;;;;;35.43;36.32;101098.66;6217545;23;20421;-93
2022/06/12 15:50:38;;;;;;;19.70;5.50;;;;;;;35.38;35.94;101087.53;6168466;23;20785;-93
2022/06/12 15:53:06;;;;;;;19.23;4.83;;;;;;;35.30;35.82;101091.28;6143009;23;20926;-92
2022/06/12 15:55:43;;;;;;;29.33;4.50;;;;;;;35.39;36.07;101096.88;6190786;23;20407;-91
2022/06/12 15:58:23;;;;;;;26.13;5.70;;;;;;;35.31;36.03;101090.13;6168953;23;20434;-90
2022/06/12 16:01:00;;;;;;;21.70;4.60;;;;;;;35.33;35.96;101090.59;6141624;23;20411;-91
2022/06/12 16:03:32;;;;;;;19.73;5.27;;;;;;;35.25;36.25;101088.63;6166142;23;20410;-89
2022/06/12 16:06:00;;;;;;;21.57;4.50;;;;;;;35.27;36.03;101089.97;6167490;23;20406;-90
2022/06/12 16:08:34;;;;;;;14.83;3.80;;;;;;;35.18;36.37;101091.25;6140683;23;20410;-92
2022/06/12 16:11:20;;;;;;;25.60;5.03;;;;;;;35.18;36.77;101096.94;6143621;23;20762;-93
2022/06/12 16:13:49;;;;;;;24.67;4.93;;;;;;;35.23;36.64;101106.03;6165823;23;20413;-92
2022/06/12 16:16:41;;;;;;;22.13;4.27;;;;;;;35.24;36.32;101106.88;6142971;23;20411;-93
2022/06/12 16:19:12;;;;;;;21.33;4.60;;;;;;;35.11;36.45;101093.81;6190831;23;21097;-93
2022/06/12 16:21:56;;;;;;;17.37;4.23;;;;;;;35.14;36.68;101101.66;6145544;23;20418;-91
2022/06/12 16:24:31;;;;;;;19.67;5.07;;;;;;;35.09;35.92;101094.19;6167367;23;20411;-92
2022/06/12 16:27:19;;;;;;;23.80;4.60;;;;;;;35.14;35.86;101113.03;6165200;23;20446;-93
2022/06/12 16:29:47;;;;;;;17.50;4.20;;;;;;;34.96;36.25;101095.34;6170844;23;20474;-93
2022/06/12 16:32:16;;;;;;;20.47;5.10;;;;;;;34.94;36.53;101087.16;6142636;23;20402;-94
2022/06/12 16:34:47;;;;;;;31.27;4.93;;;;;;;34.93;36.21;101091.19;6145251;23;20406;-92
2022/06/12 16:37:22;;;;;;;24.17;4.93;;;;;;;34.79;35.71;101089.81;6144928;23;20410;-92
2022/06/12 16:39:58;;;;;;;26.83;4.53;;;;;;;34.76;35.93;101088.47;6166771;23;20453;-92
2022/06/12 16:42:32;;;;;;;16.57;4.30;;;;;;;34.80;36.37;101092.31;6144682;23;20410;-92
2022/06/12 16:45:04;;;;;;;30.43;4.37;;;;;;;34.96;36.63;101107.53;6167709;23;20413;-92
2022/06/12 16:47:37;;;;;;;23.63;5.27;;;;;;;35.00;35.77;101113.34;6168235;23;20438;-92
2022/06/12 16:54:16;;;;;;;25.27;3.67;;;;;;;34.90;36.02;101091.88;6217647;23;20359;-91
2022/06/12 16:56:45;;;;;;;22.30;4.17;;;;;;;34.76;36.16;101074.28;6191376;23;20379;-92
2022/06/12 16:59:23;;;;;;;15.60;4.20;;;;;;;34.83;36.33;101088.75;6143022;23;20441;-90
2022/06/12 17:01:52;;;;;;;24.43;5.60;;;;;;;34.66;36.52;101066.16;6166328;23;20403;-91
2022/06/12 17:04:23;;;;;;;24.10;4.97;;;;;;;34.66;36.30;101086.06;6142979;23;20411;-92
2022/06/12 17:06:53;;;;;;;19.43;5.00;;;;;;;34.54;36.53;101066.13;6167723;23;20912;-92
2022/06/12 17:09:31;;;;;;;17.80;3.97;;;;;;;34.51;36.59;101066.81;6167409;23;20390;-91
2022/06/12 17:12:01;;;;;;;22.27;4.80;;;;;;;34.52;36.32;101074.16;6141321;23;20406;-91
2022/06/12 17:14:32;;;;;;;27.17;4.80;;;;;;;34.46;36.58;101069.84;6142359;23;20406;-92
2022/06/12 17:29:10;;;;;;;18.63;4.10;;;;;;;34.17;36.84;101065.91;6264863;22;20428;-92
2022/06/12 17:31:38;;;;;;;25.20;4.17;;;;;;;34.06;36.93;101050.44;6162475;23;20407;-92
2022/06/12 17:34:06;;;;;;;12.70;3.73;;;;;;;34.10;37.36;101048.59;6114144;23;20403;-92
2022/06/12 17:36:35;;;;;;;19.43;4.60;;;;;;;33.99;36.28;101041.66;6114021;23;20783;-92
2022/06/12 17:39:15;;;;;;;22.73;5.00;;;;;;;33.90;36.34;101055.06;6114295;23;20814;-91
2022/06/12 17:41:50;;;;;;;16.20;3.93;;;;;;;33.82;37.44;101051.13;6138259;23;20777;-92
2022/06/12 17:44:26;;;;;;;15.40;4.10;;;;;;;33.60;37.12;101040.03;6115002;23;20461;-92
2022/06/12 17:46:56;;;;;;;19.60;4.20;;;;;;;33.56;37.08;101054.06;6138201;23;20411;-92
2022/06/12 17:49:26;;;;;;;25.70;4.27;;;;;;;33.47;36.71;101058.13;6138730;23;20438;-93
2022/06/12 17:51:55;;;;;;;21.17;5.23;;;;;;;33.32;37.22;101034.00;6114320;23;20410;-91
2022/06/12 17:54:34;;;;;;;19.80;4.17;;;;;;;33.33;36.35;101061.16;6137826;23;20430;-92
2022/06/12 17:57:08;;;;;;;21.53;4.33;;;;;;;33.25;36.75;101059.19;6163911;23;20417;-91
2022/06/12 17:59:45;;;;;;;25.67;5.67;;;;;;;33.18;37.02;101042.69;6116544;23;20967;-92
2022/06/12 18:02:36;;;;;;;19.60;4.83;;;;;;;33.24;37.10;101047.03;6114540;23;20407;-92
2022/06/12 18:05:29;;;;;;;18.23;3.70;;;;;;;33.25;37.24;101048.72;6146647;23;20411;-92
2022/06/12 18:11:54;;;;;;;19.33;4.50;;;;;;;33.17;36.98;101045.88;6098185;23;20410;-92
2022/06/12 18:19:01;;;;;;;17.10;4.23;;;;;;;33.11;37.27;101036.72;6050766;23;20418;-92
2022/06/12 18:23:41;;;;;;;17.50;3.40;;;;;;;32.79;36.98;101045.81;6097679;23;20422;-92
2022/06/12 18:26:17;;;;;;;15.83;3.40;;;;;;;32.71;37.13;101046.66;6027236;23;20779;-93
2022/06/12 18:28:45;;;;;;;14.70;3.80;;;;;;;32.59;37.22;101050.13;6027187;23;20406;-93
2022/06/12 18:31:20;;;;;;;18.03;3.57;;;;;;;32.31;37.13;101046.00;6058640;23;20448;-92
2022/06/12 18:33:50;;;;;;;20.53;4.07;;;;;;;32.28;37.35;101060.81;6144649;23;20434;-92
2022/06/12 18:47:12;;;;;;;18.83;4.93;;;;;;;31.75;38.46;101059.06;6068416;23;20383;-91
2022/06/12 18:49:50;;;;;;;28.17;5.00;;;;;;;31.51;38.38;101034.00;6021506;23;20459;-92
2022/06/12 18:56:41;;;;;;;31.07;13.60;;;;;;;31.47;39.26;101053.59;6067900;23;20478;-94
2022/06/12 19:06:41;;;;;;;15.83;3.57;;;;;;;30.92;39.44;101025.72;6068122;23;20495;-93
2022/06/12 19:09:30;;;;;;;21.00;4.23;;;;;;;30.89;39.67;101051.78;6044144;23;20421;-92
2022/06/12 19:12:18;;;;;;;15.93;3.13;;;;;;;30.78;39.77;101039.13;6010789;23;20421;-92
2022/06/12 19:15:12;;;;;;;17.00;3.40;;;;;;;30.60;39.90;101022.38;5973814;23;20405;-92
2022/06/12 19:32:29;;;;;;;17.00;3.17;;;;;;;29.89;41.34;101038.94;5993221;23;20414;-92
2022/06/12 19:35:07;;;;;;;18.80;4.60;;;;;;;29.86;41.51;101046.06;5916319;24;20482;-93
2022/06/12 19:38:06;;;;;;;14.23;3.10;;;;;;;29.79;42.01;101050.47;5936721;24;20421;-92
2022/06/12 19:41:25;;;;;;;22.83;3.10;;;;;;;29.65;41.93;101053.28;5940083;24;20456;-92
2022/06/12 19:44:18;;;;;;;24.20;3.90;;;;;;;29.41;42.36;101033.81;5963099;24;20418;-93
2022/06/12 19:47:15;;;;;;;33.27;4.20;;;;;;;29.41;42.47;101056.34;5938702;24;20565;-93
2022/06/12 19:50:50;;;;;;;30.43;3.63;;;;;;;29.31;42.95;101059.31;5947683;24;20413;-93
2022/06/12 19:54:14;;;;;;;27.67;4.53;;;;;;;29.02;42.76;101044.69;5987411;23;20418;-93
2022/06/12 19:57:35;;;;;;;13.53;3.37;;;;;;;29.05;43.36;101058.16;5966311;23;20411;-94
2022/06/12 20:09:38;;;;;;;18.80;3.97;;;;;;;28.54;44.33;101071.06;6003363;23;20447;-92
2022/06/12 20:12:07;;;;;;;25.43;4.40;;;;;;;28.52;44.59;101095.03;5989521;23;20402;-93
2022/06/12 20:14:37;;;;;;;22.83;4.10;;;;;;;28.36;44.75;101079.53;6034252;23;20425;-93
2022/06/12 20:17:18;;;;;;;17.50;3.97;;;;;;;28.40;44.76;101101.13;5993992;23;20494;-93
2022/06/12 20:23:40;;;;;;;13.23;2.90;;;;;;;28.11;45.11;101089.97;5985059;24;20393;-94
2022/06/12 20:26:18;;;;;;;16.87;3.30;;;;;;;28.05;45.15;101113.69;5941289;24;20414;-92
2022/06/12 20:29:20;;;;;;;22.20;3.90;;;;;;;27.96;45.98;101109.84;5960123;24;20409;-94
2022/06/12 20:31:59;;;;;;;18.30;3.60;;;;;;;27.72;46.16;101093.03;5963721;23;20453;-94
2022/06/12 21:05:33;;;;;;;11.83;3.40;;;;;;;26.65;49.70;101138.09;6070588;23;20897;-92
2022/06/12 21:08:12;;;;;;;23.37;3.93;;;;;;;26.55;49.75;101128.94;6068832;23;20540;-91
2022/06/12 21:10:40;;;;;;;30.90;4.97;;;;;;;26.34;49.56;101117.03;6042368;23;20493;-90
2022/06/12 21:20:35;;;;;;;24.23;4.10;;;;;;;26.06;50.63;101144.59;6066452;23;20531;-87
2022/06/12 21:23:12;;;;;;;27.33;4.10;;;;;;;26.08;50.88;101150.75;6079326;23;20405;-86
2022/06/12 21:26:16;;;;;;;29.53;4.30;;;;;;;25.97;50.04;101146.34;6111382;23;20391;-86
2022/06/12 21:45:12;;;;;;;26.50;4.90;;;;;;;25.61;51.35;101150.31;5899461;24;20416;-86
2022/06/12 21:48:25;;;;;;;28.33;3.87;;;;;;;25.59;52.71;101141.41;5844288;24;20747;-86
2022/06/12 21:54:46;;;;;;;39.17;5.60;;;;;;;25.56;52.82;101150.34;5865610;24;20438;-86
2022/06/12 22:00:58;;;;;;;24.93;3.60;;;;;;;25.38;52.42;101149.84;5857060;24;20469;-86
2022/06/12 22:04:19;;;;;;;;;;;;;;;;;;;;;
2022/06/12 22:07:40;;;;;;;31.73;4.37;;;;;;;25.19;53.40;101143.16;5871524;24;20386;-86
2022/06/12 22:11:03;;;;;;;27.93;4.27;;;;;;;25.23;54.24;101151.78;6002932;23;20416;-86
2022/06/12 22:17:54;;;;;;;27.67;3.73;;;;;;;24.94;54.42;101131.94;5986545;23;20406;-86
2022/06/12 22:20:50;;;;;;;27.43;4.33;;;;;;;25.01;54.90;101143.72;5944666;24;20446;-86
2022/06/12 22:24:09;;;;;;;15.37;3.30;;;;;;;24.88;55.77;101133.03;5964720;24;20403;-86
2022/06/12 22:27:11;;;;;;;22.53;4.27;;;;;;;24.82;55.55;101129.44;5981805;24;20414;-87
2022/06/12 22:30:16;;;;;;;24.03;3.50;;;;;;;24.83;54.85;101142.25;5871617;24;20451;-86
2022/06/12 22:33:10;;;;;;;31.23;5.00;;;;;;;24.65;55.19;101129.66;5911284;24;20435;-89
2022/06/12 22:36:20;;;;;;;31.87;3.97;;;;;;;24.66;55.33;101142.53;5913663;23;20400;-89
2022/06/12 22:39:15;;;;;;;16.10;3.73;;;;;;;24.62;55.21;101147.03;6003037;23;20391;-86
2022/06/12 22:42:12;;;;;;;19.30;3.27;;;;;;;24.54;54.71;101149.53;6001263;23;20400;-86
2022/06/12 22:45:23;;;;;;;13.57;2.90;;;;;;;24.41;54.54;101131.34;6000353;23;20904;-86
2022/06/12 22:48:25;;;;;;;24.07;3.27;;;;;;;24.48;55.10;101151.44;6043825;23;20398;-86
2022/06/12 22:51:23;;;;;;;17.50;3.17;;;;;;;24.37;55.63;101127.41;6055456;23;20526;-86
2022/06/12 22:54:22;;;;;;;18.23;3.27;;;;;;;24.42;55.94;101110.66;6075383;23;20402;-86
2022/06/12 22:57:12;;;;;;;20.10;3.20;;;;;;;24.49;56.07;101102.81;6057419;23;20447;-86
2022/06/12 23:00:28;;;;;;;16.30;3.80;;;;;;;24.77;55.60;101121.03;6056222;23;20449;-86
2022/06/12 23:03:32;;;;;;;19.67;3.23;;;;;;;24.76;55.33;101114.59;6016721;23;20407;-86
2022/06/12 23:06:39;;;;;;;21.40;3.50;;;;;;;24.90;55.27;101122.41;6041829;23;20410;-88
2022/06/12 23:09:46;;;;;;;21.17;3.70;;;;;;;24.95;55.08;101116.88;6142239;23;20388;-89
2022/06/12 23:12:36;;;;;;;17.47;3.73;;;;;;;24.89;54.98;101110.41;6055275;23;20402;-89
2022/06/12 23:35:15;;;;;;;22.37;4.43;;;;;;;25.59;55.53;101133.00;6008231;23;20957;-88
2022/06/12 23:38:43;;;;;;;19.13;3.47;;;;;;;25.60;55.15;101120.66;5981163;24;20983;-87
2022/06/12 23:45:42;;;;;;;;;;;;;;;;;;;;;
2022/06/12 23:49:34;;;;;;;21.73;3.60;;;;;;;25.17;55.26;101125.81;6002537;23;20395;-87
2022/06/12 23:53:02;;;;;;;18.10;3.23;;;;;;;24.99;55.19;101118.81;6037769;23;20404;-88
2022/06/12 23:56:40;;;;;;;17.30;3.97;;;;;;;24.87;55.91;101109.84;6020413;23;20954;-88
